METAR Data
IDs: Format: Raw Decoded Include TAF

Data at: 0232 UTC 29 Nov 2020

METAR for:KIKV (Ankeny Rgnl, IA, US)
Text:KIKV 290215Z AUTO 21007G12KT 10SM CLR 08/00 A3001 RMK AO2
Temperature: 8.0°C ( 46°F)
Dewpoint: 0.0°C ( 32°F) [RH = 57%]
Pressure (altimeter):30.01 inches Hg (1016.3 mb)
Winds:from the SSW (210 degrees) at 8 MPH (7 knots; 3.6 m/s) gusting to 14 MPH (12 knots; 6.2 m/s)
Visibility:10 or more sm (16+ km)
Ceiling:at least 12,000 feet AGL
Clouds:sky clear below 12,000 feet AGL
QC Flag:automated observation with no human augmentation